WLTO2: East Cache Creek Nr Walters, O

Data processed at Sun Sep 23 2018 22:02


All information presented herein is the property of the government of the United States of America and may be revised or deleted at any time without prior notice.
Dissemination of this information without the expressed written consent of the Public Affairs Office, Tulsa District U.S. Army Corps of Engineers is strictly prohibited.
These data are gathered electronically and, as presented, have not undergone any form of quality control. These data are not guaranteed to be valid or correct.
Go to home page.
Go to station list.
Go to home page.

Upstream stations:

Downstream station:
Previous Day
Next Day
Current Day
    
SHEF ID:       WLTO2     East Cache Creek near Walters, O
STATION TYPE:  

               PRECIP PRECIP(A)     STAGE  RIV-FLOW  BAT-LOAD
                   in        in        ft       cfs      volt
              Ccp-Rev   Ccp-Rev   Ccp-Rev   Ccp-Rev   Ccp-Rev
(US/Central)
09/23 00:00      0.00      ----     16.37      2278     12.41
09/23 01:00      0.00      ----     16.08      2207     12.41
09/23 02:00      0.00      ----     15.78      2134     12.41
09/23 03:00      0.00      ----     15.48      2061     12.41
09/23 04:00      0.00      ----     15.19      1992     12.41
09/23 05:00      0.00      ----     14.93      1930     12.41
09/23 06:00      0.00      ----     14.68      1870     12.33
09/23 07:00      0.00      ----     14.45      1816     12.33
09/23 08:00      0.00      ----     14.26      1772     12.33
09/23 09:00      0.00      ----     14.08      1730     12.33
09/23 10:00      0.00      ----     13.93      1696     12.41
09/23 11:00      0.00      ----     13.79      1663     12.73
09/23 12:00      0.00      ----     13.67      1636     12.89
09/23 13:00      0.00      ----     13.57      1613     12.97
09/23 14:00      0.00      ----     13.47      1590     13.21
09/23 15:00      0.00      ----     13.38      1570     12.89
09/23 16:00      0.00      ----     13.29      1549     12.73
09/23 17:00      0.00      ----     13.21      1531     12.65
09/23 18:00      0.00      ----     13.13      1513     12.65
09/23 19:00      0.00      ----     13.05      1495     12.57
09/23 20:00      0.00      ----     12.97      1478     12.49
09/23 21:00      0.00      ----     12.91      1464     12.41
09/23 22:00      ----      ----      ----      ----      ----
09/23 23:00      ----      ----      ----      ----      ----